Time;durP1;ratioP1;P1;durP2;ratioP2;P2;SDS_P1;SDS_P2;PMS_P1;PMS_P2;Temp;Humidity;BMP_temperature;BMP_pressure;BME280_temperature;BME280_humidity;BME280_pressure;Samples;Min_cycle;Max_cycle;Signal;HPM_P1;HPM_P2
2022/07/16 00:01:22;;;;;;;6.95;1.02;;;16.20;99.90;;;;;;5015410;28;20560;-76
2022/07/16 00:03:51;;;;;;;;;;;16.20;99.90;;;;;;5033642;28;20049;-76
2022/07/16 00:06:19;;;;;;;2.53;1.17;;;16.30;99.90;;;;;;5015001;28;20027;-76
2022/07/16 00:08:47;;;;;;;11.65;2.03;;;16.20;99.90;;;;;;5014407;28;20084;-76
2022/07/16 00:11:15;;;;;;;11.63;1.50;;;16.20;99.90;;;;;;5032839;28;20057;-76
2022/07/16 00:13:43;;;;;;;13.55;2.15;;;16.20;99.90;;;;;;5014860;28;20052;-76
2022/07/16 00:16:13;;;;;;;8.95;1.63;;;16.20;99.90;;;;;;5032749;28;20708;-75
2022/07/16 00:21:27;;;;;;;5.00;0.90;;;16.20;99.90;;;;;;5015227;28;20045;-75
2022/07/16 00:23:55;;;;;;;7.95;0.82;;;16.10;99.90;;;;;;5015233;28;20059;-75
2022/07/16 00:26:23;;;;;;;4.38;1.08;;;16.00;99.90;;;;;;4998566;28;20450;-76
2022/07/16 00:28:52;;;;;;;5.25;0.73;;;16.00;99.90;;;;;;5031057;28;20514;-76
2022/07/16 00:31:21;;;;;;;6.57;1.08;;;16.00;99.90;;;;;;5014650;28;20049;-76
2022/07/16 00:33:49;;;;;;;2.85;0.68;;;16.00;99.90;;;;;;5014972;28;20509;-76
2022/07/16 00:36:17;;;;;;;6.38;0.80;;;15.90;99.90;;;;;;5032352;28;20111;-76
2022/07/16 00:38:44;;;;;;;12.05;1.92;;;16.00;99.90;;;;;;5030560;28;20076;-77
2022/07/16 00:41:17;;;;;;;9.30;1.48;;;15.90;99.90;;;;;;5032420;28;20087;-76
2022/07/16 00:43:51;;;;;;;8.02;1.48;;;15.90;99.90;;;;;;5031099;28;20073;-76
2022/07/16 00:46:20;;;;;;;8.00;0.98;;;15.90;99.90;;;;;;5030763;28;20053;-76
2022/07/16 00:48:48;;;;;;;3.30;0.85;;;16.00;99.90;;;;;;5032347;28;20045;-75
2022/07/16 00:51:17;;;;;;;4.32;1.00;;;15.90;99.90;;;;;;5030810;28;20786;-76
2022/07/16 00:53:45;;;;;;;3.67;0.70;;;15.90;99.90;;;;;;5030750;28;20061;-76
2022/07/16 00:56:16;;;;;;;1.65;0.70;;;15.90;99.90;;;;;;5032117;28;20518;-76
2022/07/16 00:58:46;;;;;;;2.80;0.57;;;15.90;99.90;;;;;;5014200;28;20514;-76
2022/07/16 01:01:15;;;;;;;1.40;0.75;;;15.80;99.90;;;;;;5013978;28;20406;-78
2022/07/16 01:03:46;;;;;;;1.88;0.60;;;15.80;99.90;;;;;;5031495;28;20581;-76
2022/07/16 01:06:15;;;;;;;4.03;0.60;;;15.80;99.90;;;;;;5030551;28;20080;-77
2022/07/16 01:08:45;;;;;;;3.70;0.95;;;15.70;99.90;;;;;;5031581;28;20052;-77
2022/07/16 01:11:16;;;;;;;3.55;1.17;;;15.70;99.90;;;;;;5031507;28;20076;-77
2022/07/16 01:13:46;;;;;;;5.25;1.40;;;15.70;99.90;;;;;;5013745;28;20060;-76
2022/07/16 01:16:15;;;;;;;1.77;0.70;;;15.60;99.90;;;;;;5031458;28;20140;-77
2022/07/16 01:18:45;;;;;;;6.10;1.20;;;15.60;99.90;;;;;;5031666;28;20049;-76
2022/07/16 01:21:14;;;;;;;8.52;1.17;;;15.50;99.90;;;;;;5013963;28;20049;-76
2022/07/16 01:23:51;;;;;;;9.93;1.38;;;15.50;99.90;;;;;;5031716;28;20041;-76
2022/07/16 01:26:19;;;;;;;7.35;1.17;;;15.50;99.90;;;;;;5013780;28;20053;-75
2022/07/16 01:28:47;;;;;;;11.43;1.55;;;15.40;99.90;;;;;;5013759;28;20461;-76
2022/07/16 01:31:15;;;;;;;5.13;1.35;;;15.40;99.90;;;;;;5031638;28;20057;-76
2022/07/16 01:33:44;;;;;;;5.78;0.80;;;15.40;99.90;;;;;;5014025;28;20497;-77
2022/07/16 01:36:15;;;;;;;8.40;1.02;;;15.40;99.90;;;;;;5013833;28;20080;-76
2022/07/16 01:38:47;;;;;;;3.58;0.90;;;15.40;99.90;;;;;;5031791;28;20064;-77
2022/07/16 01:41:15;;;;;;;8.30;1.43;;;15.40;99.90;;;;;;5031403;28;20572;-76
2022/07/16 01:43:43;;;;;;;6.85;1.35;;;15.40;99.90;;;;;;5031540;28;20132;-77
2022/07/16 01:46:10;;;;;;;9.95;1.40;;;15.40;99.90;;;;;;5013596;28;20501;-77
2022/07/16 01:48:38;;;;;;;10.40;1.33;;;15.40;99.90;;;;;;5031056;28;20064;-75
2022/07/16 01:51:06;;;;;;;14.68;2.13;;;15.30;99.90;;;;;;5031201;28;20046;-76
2022/07/16 01:53:34;;;;;;;11.60;2.08;;;15.30;99.90;;;;;;5013588;28;20053;-75
2022/07/16 01:56:03;;;;;;;9.05;0.88;;;15.30;99.90;;;;;;5013501;28;20041;-77
2022/07/16 01:58:31;;;;;;;6.95;1.00;;;15.20;99.90;;;;;;5031005;28;20472;-77
2022/07/16 02:00:59;;;;;;;5.10;1.45;;;15.20;99.90;;;;;;4996721;28;20107;-77
2022/07/16 02:03:27;;;;;;;5.95;1.15;;;15.20;99.90;;;;;;5013053;28;20042;-77
2022/07/16 02:05:54;;;;;;;10.93;1.88;;;15.20;99.90;;;;;;5030690;28;20500;-77
2022/07/16 02:08:22;;;;;;;7.30;1.13;;;15.20;99.90;;;;;;5029630;28;20712;-76
2022/07/16 02:10:50;;;;;;;3.80;1.00;;;15.10;99.90;;;;;;5030761;28;20104;-76
2022/07/16 02:13:19;;;;;;;12.35;1.33;;;15.10;99.90;;;;;;5013104;28;20884;-76
2022/07/16 02:15:47;;;;;;;10.80;2.63;;;15.10;99.90;;;;;;5013467;28;20076;-76
2022/07/16 02:18:15;;;;;;;13.27;1.88;;;15.00;99.90;;;;;;5012489;28;20462;-76
2022/07/16 02:20:43;;;;;;;11.23;1.52;;;15.00;99.90;;;;;;5029239;28;20077;-76
2022/07/16 02:23:11;;;;;;;9.75;1.38;;;15.00;99.90;;;;;;5030447;28;20144;-77
2022/07/16 02:25:40;;;;;;;5.43;0.98;;;14.90;99.90;;;;;;4996189;28;20045;-77
2022/07/16 02:28:08;;;;;;;4.60;0.90;;;14.90;99.90;;;;;;5030273;28;20049;-77
2022/07/16 02:30:40;;;;;;;4.03;0.73;;;14.80;99.90;;;;;;5030302;28;20053;-77
2022/07/16 02:33:11;;;;;;;5.80;1.47;;;14.80;99.90;;;;;;5030301;28;20066;-76
2022/07/16 02:35:39;;;;;;;5.80;0.98;;;14.70;99.90;;;;;;5030409;28;20096;-76
2022/07/16 02:38:08;;;;;;;5.60;0.80;;;14.70;99.90;;;;;;5013199;28;20517;-77
2022/07/16 02:40:37;;;;;;;2.47;0.88;;;14.70;99.90;;;;;;5029996;28;20057;-77
2022/07/16 02:43:07;;;;;;;1.20;0.93;;;14.70;99.90;;;;;;5030337;28;20152;-76
2022/07/16 02:45:39;;;;;;;2.58;0.93;;;14.60;99.90;;;;;;5030658;28;20140;-76
2022/07/16 02:48:08;;;;;;;2.10;0.95;;;14.60;99.90;;;;;;5030269;28;20136;-75
2022/07/16 02:50:36;;;;;;;2.00;0.73;;;14.60;99.90;;;;;;5030415;28;20156;-75
2022/07/16 02:53:04;;;;;;;3.22;0.70;;;14.60;99.90;;;;;;5029889;28;20060;-77
2022/07/16 02:55:32;;;;;;;2.95;0.80;;;14.70;99.90;;;;;;5030129;28;20694;-77
2022/07/16 02:58:00;;;;;;;1.50;0.60;;;14.70;99.90;;;;;;5012408;28;20050;-77
2022/07/16 03:00:28;;;;;;;2.67;0.80;;;14.70;99.90;;;;;;5030267;28;20088;-78
2022/07/16 03:02:57;;;;;;;5.85;0.70;;;14.70;99.90;;;;;;5030038;28;20046;-78
2022/07/16 03:05:26;;;;;;;5.15;1.00;;;14.70;99.90;;;;;;5030663;28;20073;-77
2022/07/16 03:07:53;;;;;;;1.67;0.70;;;14.70;99.90;;;;;;5012603;28;20049;-76
2022/07/16 03:10:21;;;;;;;1.67;0.60;;;14.70;99.90;;;;;;5012119;28;20053;-76
2022/07/16 03:12:49;;;;;;;1.10;0.60;;;14.80;99.90;;;;;;5029306;28;20050;-76
2022/07/16 03:15:17;;;;;;;3.92;0.80;;;14.70;99.90;;;;;;5029837;28;20084;-77
2022/07/16 03:17:45;;;;;;;1.90;0.98;;;14.70;99.90;;;;;;5014840;28;20049;-77
2022/07/16 03:20:15;;;;;;;3.05;0.70;;;14.70;99.90;;;;;;5034237;28;20057;-76
2022/07/16 03:22:46;;;;;;;0.75;0.35;;;14.70;99.90;;;;;;5034061;28;20417;-76
2022/07/16 03:25:17;;;;;;;1.98;1.05;;;14.70;99.90;;;;;;5033875;28;20426;-76
2022/07/16 03:27:45;;;;;;;3.85;0.60;;;14.70;99.90;;;;;;5032622;28;20403;-78
2022/07/16 03:30:14;;;;;;;3.97;1.80;;;14.70;99.90;;;;;;5015519;28;20513;-76
2022/07/16 03:32:42;;;;;;;2.50;1.30;;;14.70;99.90;;;;;;5015563;28;20469;-76
2022/07/16 03:35:12;;;;;;;2.03;0.65;;;14.70;99.90;;;;;;5032039;28;20084;-76
2022/07/16 03:40:28;;;;;;;2.70;0.65;;;14.70;99.90;;;;;;5016044;28;20148;-76
2022/07/16 03:42:56;;;;;;;0.90;0.40;;;14.70;99.90;;;;;;5033003;28;20049;-75
2022/07/16 03:45:24;;;;;;;2.63;0.60;;;14.70;99.90;;;;;;5033040;28;20045;-76
2022/07/16 03:47:57;;;;;;;2.90;0.60;;;14.70;99.90;;;;;;5015347;28;20148;-76
2022/07/16 03:50:25;;;;;;;5.25;1.10;;;14.70;99.90;;;;;;5015469;28;20607;-75
2022/07/16 03:52:54;;;;;;;1.40;0.50;;;14.80;99.90;;;;;;5032955;28;20084;-75
2022/07/16 03:55:22;;;;;;;2.30;0.63;;;14.80;99.90;;;;;;5032707;28;20067;-75
2022/07/16 03:57:50;;;;;;;1.17;0.57;;;14.80;99.90;;;;;;5033058;28;20649;-75
2022/07/16 04:00:18;;;;;;;2.42;0.55;;;14.80;99.90;;;;;;5031958;28;20402;-76
2022/07/16 04:02:45;;;;;;;5.53;0.60;;;14.80;99.90;;;;;;5032071;28;20057;-75
2022/07/16 04:05:13;;;;;;;1.50;0.80;;;14.90;99.90;;;;;;5033108;28;20073;-76
2022/07/16 04:07:41;;;;;;;2.45;0.68;;;14.90;99.90;;;;;;5015481;28;20073;-76
2022/07/16 04:10:10;;;;;;;0.85;0.50;;;15.00;99.90;;;;;;5031749;28;20049;-76
2022/07/16 04:12:45;;;;;;;3.20;0.60;;;15.00;99.90;;;;;;5031190;28;20088;-77
2022/07/16 04:15:13;;;;;;;2.08;0.90;;;15.00;99.90;;;;;;5032138;28;20531;-76
2022/07/16 04:17:40;;;;;;;2.90;0.50;;;15.10;99.90;;;;;;5032277;28;20088;-76
2022/07/16 04:20:10;;;;;;;3.20;0.50;;;15.10;99.90;;;;;;5015158;28;20410;-77
2022/07/16 04:22:38;;;;;;;1.55;0.45;;;15.10;99.90;;;;;;5014777;28;20107;-77
2022/07/16 04:25:07;;;;;;;2.42;0.47;;;15.10;99.90;;;;;;4998058;28;20045;-77
2022/07/16 04:27:37;;;;;;;5.57;0.68;;;15.10;99.90;;;;;;5014441;28;20355;-76
2022/07/16 04:30:07;;;;;;;1.88;0.60;;;15.10;99.90;;;;;;5032168;28;20513;-76
2022/07/16 04:32:35;;;;;;;1.23;0.50;;;15.10;99.90;;;;;;5014358;28;20425;-76
2022/07/16 04:35:05;;;;;;;0.50;0.50;;;15.10;99.90;;;;;;4998440;28;20045;-76
2022/07/16 04:37:34;;;;;;;4.47;0.60;;;15.20;99.90;;;;;;5014569;28;20049;-76
2022/07/16 04:40:03;;;;;;;2.08;0.68;;;15.20;99.90;;;;;;5014991;28;20137;-77
2022/07/16 04:42:32;;;;;;;1.00;0.43;;;15.30;99.90;;;;;;5031905;28;20062;-76
2022/07/16 04:45:02;;;;;;;4.50;0.55;;;15.30;99.90;;;;;;5030672;28;20494;-76
2022/07/16 04:47:32;;;;;;;2.53;0.55;;;15.30;99.90;;;;;;5032306;28;20060;-76
2022/07/16 04:50:00;;;;;;;3.33;0.60;;;15.40;99.90;;;;;;5031002;28;20054;-76
2022/07/16 04:52:30;;;;;;;9.50;0.70;;;15.40;99.90;;;;;;5031779;28;20529;-76
2022/07/16 04:54:58;;;;;;;1.02;0.30;;;15.40;99.90;;;;;;5031957;28;20050;-76
2022/07/16 04:57:26;;;;;;;4.65;0.60;;;15.50;99.90;;;;;;5031419;28;20045;-76
2022/07/16 04:59:54;;;;;;;1.42;0.40;;;15.50;99.90;;;;;;5032162;28;20058;-76
2022/07/16 05:05:09;;;;;;;4.82;0.40;;;15.60;99.90;;;;;;5014081;28;20052;-76
2022/07/16 05:07:38;;;;;;;1.80;0.50;;;15.60;99.90;;;;;;5013756;28;20528;-76
2022/07/16 05:10:07;;;;;;;0.90;0.40;;;15.70;99.90;;;;;;5013538;28;20102;-76
2022/07/16 05:12:35;;;;;;;0.63;0.38;;;15.70;99.90;;;;;;5031785;28;20053;-76
2022/07/16 05:15:05;;;;;;;1.45;0.40;;;15.70;99.90;;;;;;5013814;28;20111;-77
2022/07/16 05:17:34;;;;;;;1.65;0.40;;;15.80;99.90;;;;;;5030862;28;20061;-77
2022/07/16 05:20:02;;;;;;;1.92;0.40;;;15.80;99.90;;;;;;5013950;28;20426;-77
2022/07/16 05:22:32;;;;;;;3.08;0.40;;;15.90;99.90;;;;;;5031559;28;20046;-77
2022/07/16 05:24:59;;;;;;;4.75;0.80;;;16.00;99.90;;;;;;5031818;28;20072;-76
2022/07/16 05:27:27;;;;;;;0.63;0.22;;;16.20;99.90;;;;;;5031438;28;20127;-76
2022/07/16 05:29:55;;;;;;;0.85;0.43;;;16.30;99.90;;;;;;5013057;28;20080;-76
2022/07/16 05:32:23;;;;;;;4.07;0.40;;;16.40;99.90;;;;;;4996764;28;20073;-78
2022/07/16 05:34:52;;;;;;;2.28;0.50;;;16.50;99.90;;;;;;5031869;28;20524;-77
2022/07/16 05:37:20;;;;;;;3.55;0.70;;;16.50;99.90;;;;;;5031393;28;20053;-76
2022/07/16 05:39:48;;;;;;;1.27;0.50;;;16.60;99.90;;;;;;5030504;28;20057;-77
2022/07/16 05:42:16;;;;;;;1.63;0.40;;;16.80;99.90;;;;;;4995693;28;20042;-77
2022/07/16 05:44:43;;;;;;;0.68;0.30;;;17.00;99.90;;;;;;5030896;28;20053;-77
2022/07/16 05:47:11;;;;;;;0.93;0.70;;;17.40;99.90;;;;;;5013744;28;20053;-76
2022/07/16 05:49:39;;;;;;;1.58;0.50;;;17.90;99.90;;;;;;5031849;28;20049;-77
2022/07/16 05:52:09;;;;;;;3.58;0.50;;;18.50;99.90;;;;;;4997153;28;20065;-78
2022/07/16 05:54:36;;;;;;;2.28;0.52;;;19.00;99.90;;;;;;5031333;28;20077;-78
2022/07/16 05:57:05;;;;;;;2.55;0.60;;;19.50;99.90;;;;;;5031211;28;20045;-78
2022/07/16 05:59:32;;;;;;;1.38;0.70;;;19.90;99.90;;;;;;5031157;28;20136;-78
2022/07/16 06:02:00;;;;;;;1.55;0.30;;;20.20;99.90;;;;;;5029471;28;20072;-76
2022/07/16 06:04:28;;;;;;;2.47;0.73;;;20.70;94.40;;;;;;4996694;28;20335;-77
2022/07/16 06:06:56;;;;;;;1.67;0.60;;;20.80;92.80;;;;;;5030749;28;20123;-77
2022/07/16 06:09:25;;;;;;;3.40;1.13;;;20.80;91.70;;;;;;5030475;28;20053;-77
2022/07/16 06:11:53;;;;;;;0.57;0.50;;;20.90;91.30;;;;;;5012447;28;20057;-78
2022/07/16 06:14:21;;;;;;;2.90;0.50;;;21.20;90.00;;;;;;5030418;28;20107;-78
2022/07/16 06:16:49;;;;;;;1.75;0.40;;;21.40;89.40;;;;;;5012481;28;20501;-78
2022/07/16 06:19:17;;;;;;;4.60;0.50;;;21.80;87.40;;;;;;5012416;28;20533;-77
2022/07/16 06:21:45;;;;;;;0.70;0.55;;;22.10;86.10;;;;;;5029912;28;20505;-77
2022/07/16 06:24:13;;;;;;;1.85;0.65;;;22.50;85.70;;;;;;5012667;28;20056;-77
2022/07/16 06:26:47;;;;;;;1.23;0.30;;;23.20;82.00;;;;;;5012576;28;20056;-78
2022/07/16 06:29:15;;;;;;;5.65;0.75;;;23.60;78.60;;;;;;5030568;28;20045;-78
2022/07/16 06:31:44;;;;;;;0.90;0.50;;;23.50;79.90;;;;;;5012790;28;20057;-78
2022/07/16 06:34:12;;;;;;;2.03;0.65;;;23.50;77.40;;;;;;5030328;28;20049;-77
2022/07/16 06:36:40;;;;;;;1.48;0.60;;;23.30;77.40;;;;;;5012541;28;20045;-77
2022/07/16 06:39:08;;;;;;;3.65;0.70;;;23.20;74.40;;;;;;5030605;28;20111;-77
2022/07/16 06:41:37;;;;;;;3.10;0.63;;;23.10;75.40;;;;;;5028727;28;20053;-76
2022/07/16 06:44:09;;;;;;;4.05;1.00;;;23.20;75.00;;;;;;5030297;28;20144;-77
2022/07/16 06:46:37;;;;;;;1.00;0.63;;;23.30;73.90;;;;;;5030644;28;20042;-78
2022/07/16 06:49:06;;;;;;;0.40;0.40;;;23.40;72.80;;;;;;5030591;28;20049;-78
2022/07/16 06:51:34;;;;;;;2.17;0.55;;;23.20;71.20;;;;;;5031799;28;20140;-78
2022/07/16 06:54:01;;;;;;;2.58;0.70;;;22.90;72.10;;;;;;5033207;28;20073;-78
2022/07/16 06:56:29;;;;;;;2.67;0.90;;;22.30;73.10;;;;;;5016079;28;20144;-78
2022/07/16 06:58:57;;;;;;;2.35;0.68;;;21.80;75.70;;;;;;5034341;28;20057;-79
2022/07/16 07:01:26;;;;;;;1.40;0.70;;;22.30;75.60;;;;;;5033727;28;20085;-78
2022/07/16 07:03:54;;;;;;;4.00;0.98;;;22.70;77.00;;;;;;5034143;28;20060;-78
2022/07/16 07:06:22;;;;;;;8.30;0.90;;;22.60;73.30;;;;;;5034338;28;20049;-78
2022/07/16 07:08:52;;;;;;;1.77;0.50;;;22.30;73.00;;;;;;5016898;28;20484;-79
2022/07/16 07:11:20;;;;;;;4.70;1.10;;;22.00;73.70;;;;;;5033831;28;20042;-77
2022/07/16 07:13:48;;;;;;;2.92;1.05;;;21.80;76.50;;;;;;5034294;28;20064;-78
2022/07/16 07:16:16;;;;;;;6.18;0.90;;;22.30;74.40;;;;;;5033470;28;20056;-78
2022/07/16 07:18:46;;;;;;;5.13;0.77;;;22.40;73.90;;;;;;5016101;28;20469;-78
2022/07/16 07:21:14;;;;;;;0.68;0.60;;;22.20;74.70;;;;;;5033907;28;20056;-78
2022/07/16 07:23:41;;;;;;;2.42;1.00;;;21.90;75.10;;;;;;5015913;28;20076;-78
2022/07/16 07:26:09;;;;;;;1.65;0.32;;;21.70;76.20;;;;;;5033762;28;20492;-78
2022/07/16 07:28:37;;;;;;;1.75;0.50;;;22.40;76.00;;;;;;5034378;28;20140;-78
2022/07/16 07:31:05;;;;;;;2.17;0.60;;;22.80;72.30;;;;;;4999660;28;20531;-78
2022/07/16 07:33:33;;;;;;;1.45;0.45;;;22.50;73.00;;;;;;5033324;28;20064;-78
2022/07/16 07:36:02;;;;;;;2.20;0.55;;;22.00;75.70;;;;;;5034121;28;20394;-78
2022/07/16 07:38:30;;;;;;;1.77;0.65;;;21.60;76.90;;;;;;5033972;28;20083;-78
2022/07/16 07:40:57;;;;;;;2.65;0.50;;;21.40;76.50;;;;;;5034001;28;20057;-79
2022/07/16 07:43:26;;;;;;;1.73;0.70;;;21.40;74.60;;;;;;5033404;28;20053;-77
2022/07/16 07:45:54;;;;;;;1.10;0.98;;;21.20;75.30;;;;;;5033060;28;20498;-78
2022/07/16 07:48:22;;;;;;;3.95;0.50;;;22.30;75.10;;;;;;5015667;28;20041;-77
2022/07/16 07:50:52;;;;;;;7.00;0.60;;;22.90;72.20;;;;;;4999586;28;20056;-78
2022/07/16 07:53:22;;;;;;;3.85;1.13;;;23.00;69.70;;;;;;5034730;28;20077;-79
2022/07/16 07:55:50;;;;;;;2.17;0.50;;;23.00;70.00;;;;;;5016173;28;20061;-80
2022/07/16 07:58:24;;;;;;;4.30;0.60;;;22.60;68.20;;;;;;5016892;28;20049;-79
2022/07/16 08:00:55;;;;;;;7.07;1.20;;;23.00;67.50;;;;;;5039956;28;20069;-80
2022/07/16 08:03:24;;;;;;;3.83;0.73;;;23.80;65.80;;;;;;5024372;28;20118;-79
2022/07/16 08:05:53;;;;;;;2.95;0.80;;;24.50;63.90;;;;;;5040398;28;20075;-80
2022/07/16 08:08:22;;;;;;;2.30;0.55;;;24.50;62.60;;;;;;5041778;28;20057;-78
2022/07/16 08:10:50;;;;;;;10.05;1.45;;;24.20;63.20;;;;;;5033223;28;20061;-78
2022/07/16 08:13:18;;;;;;;2.53;1.00;;;23.80;65.20;;;;;;5034152;28;20087;-77
2022/07/16 08:15:47;;;;;;;1.70;1.15;;;23.50;65.50;;;;;;5015536;28;20045;-79
2022/07/16 08:18:14;;;;;;;2.35;0.70;;;23.60;66.30;;;;;;5033072;28;20072;-78
2022/07/16 08:20:43;;;;;;;1.92;0.90;;;24.00;65.90;;;;;;5033152;28;20085;-78
2022/07/16 08:23:10;;;;;;;1.35;0.63;;;24.10;64.80;;;;;;5033847;28;20084;-78
2022/07/16 08:25:44;;;;;;;1.52;0.60;;;23.50;64.90;;;;;;5030916;28;20076;-79
2022/07/16 08:28:12;;;;;;;4.28;0.60;;;22.80;66.80;;;;;;5008069;28;20084;-78
2022/07/16 08:30:41;;;;;;;2.22;0.50;;;22.70;69.90;;;;;;4993669;28;20054;-79
2022/07/16 08:33:08;;;;;;;7.35;1.00;;;23.60;68.70;;;;;;4992679;28;20136;-78
2022/07/16 08:35:37;;;;;;;8.35;0.90;;;25.10;64.50;;;;;;4994014;28;20091;-80
2022/07/16 08:38:05;;;;;;;2.00;0.50;;;26.40;61.40;;;;;;5026222;28;20556;-79
2022/07/16 08:40:35;;;;;;;1.20;0.55;;;26.60;57.40;;;;;;5004320;28;20049;-79
2022/07/16 08:43:06;;;;;;;6.95;0.95;;;25.30;58.20;;;;;;5002596;28;20104;-79
2022/07/16 08:45:36;;;;;;;12.93;1.83;;;23.80;60.80;;;;;;5026935;28;20053;-80
2022/07/16 08:48:04;;;;;;;4.65;0.90;;;22.80;64.30;;;;;;5021293;28;20050;-80
2022/07/16 08:50:32;;;;;;;2.78;0.90;;;22.20;66.20;;;;;;5007096;28;20045;-79
2022/07/16 08:53:02;;;;;;;8.57;0.88;;;21.70;68.20;;;;;;5027259;28;20045;-84
2022/07/16 08:55:31;;;;;;;3.72;0.60;;;21.10;70.20;;;;;;5011324;28;20077;-82
2022/07/16 08:57:59;;;;;;;3.78;0.85;;;20.80;71.40;;;;;;4995717;28;20051;-83
2022/07/16 09:00:29;;;;;;;8.88;1.00;;;20.50;72.90;;;;;;5023931;28;20041;-83
2022/07/16 09:02:58;;;;;;;2.40;0.90;;;20.40;74.40;;;;;;5007711;28;20598;-81
2022/07/16 09:05:26;;;;;;;4.60;0.80;;;20.30;75.90;;;;;;5013211;28;20148;-81
2022/07/16 09:07:54;;;;;;;2.35;1.13;;;20.50;76.70;;;;;;5011709;28;20064;-82
2022/07/16 09:10:23;;;;;;;3.65;0.80;;;20.80;76.40;;;;;;5019239;28;20056;-81
2022/07/16 09:12:51;;;;;;;1.05;0.70;;;21.30;76.40;;;;;;5001587;28;20142;-80
2022/07/16 09:15:27;;;;;;;3.75;0.88;;;23.30;72.20;;;;;;5021639;28;20049;-81
2022/07/16 09:18:19;;;;;;;1.50;0.75;;;24.80;66.40;;;;;;5023398;28;20387;-80
2022/07/16 09:20:54;;;;;;;3.45;0.57;;;26.20;63.00;;;;;;5020357;28;20048;-81
2022/07/16 09:23:33;;;;;;;1.42;1.15;;;27.20;59.60;;;;;;5017562;28;20064;-81
2022/07/16 09:26:04;;;;;;;1.75;0.82;;;27.80;58.10;;;;;;5015127;28;20133;-82
2022/07/16 09:28:43;;;;;;;2.13;0.65;;;28.10;57.60;;;;;;5010068;28;20054;-82
2022/07/16 09:31:12;;;;;;;4.13;0.60;;;29.00;55.30;;;;;;5019122;28;20052;-82
2022/07/16 09:33:41;;;;;;;4.95;0.95;;;28.90;55.20;;;;;;5007201;28;20493;-83
2022/07/16 09:36:12;;;;;;;4.78;0.88;;;29.10;55.20;;;;;;5019774;28;20132;-83
2022/07/16 09:38:48;;;;;;;2.15;1.23;;;29.10;54.90;;;;;;5020924;28;20034;-82
2022/07/16 09:41:18;;;;;;;2.85;0.90;;;29.00;55.40;;;;;;5025513;28;20463;-81
2022/07/16 09:43:47;;;;;;;4.78;1.00;;;29.20;53.90;;;;;;5001269;28;20407;-80
2022/07/16 09:46:21;;;;;;;2.22;0.63;;;28.80;55.00;;;;;;5011515;28;20045;-80
2022/07/16 09:48:52;;;;;;;4.22;0.88;;;28.30;54.10;;;;;;5013408;28;20049;-85
2022/07/16 09:51:23;;;;;;;5.47;0.80;;;27.00;56.90;;;;;;4993525;28;20519;-83
2022/07/16 09:53:53;;;;;;;1.67;0.80;;;26.00;57.80;;;;;;5012002;28;20058;-84
2022/07/16 09:56:25;;;;;;;4.03;1.75;;;25.10;59.20;;;;;;5017447;28;20082;-83
2022/07/16 09:58:54;;;;;;;3.88;0.80;;;24.30;61.00;;;;;;5020046;28;20050;-83
2022/07/16 10:01:26;;;;;;;5.32;0.90;;;23.60;63.30;;;;;;5018525;28;20049;-83
2022/07/16 10:03:56;;;;;;;6.45;1.30;;;22.90;66.00;;;;;;5020516;28;20045;-82
2022/07/16 10:06:25;;;;;;;3.85;0.63;;;22.70;66.80;;;;;;5003291;28;20058;-80
2022/07/16 10:08:54;;;;;;;5.25;0.80;;;22.90;66.00;;;;;;5017491;28;20510;-82
2022/07/16 10:11:22;;;;;;;4.03;0.60;;;22.60;67.10;;;;;;5002553;28;20553;-81
2022/07/16 10:13:52;;;;;;;0.82;0.57;;;22.50;68.10;;;;;;5000306;28;20056;-83
2022/07/16 10:16:38;;;;;;;2.70;0.70;;;23.00;68.40;;;;;;5020432;28;20042;-82
2022/07/16 10:19:09;;;;;;;1.55;0.55;;;25.00;64.10;;;;;;4985825;28;20053;-83
2022/07/16 10:21:37;;;;;;;3.85;0.80;;;25.50;62.20;;;;;;4993405;28;20045;-84
2022/07/16 10:24:08;;;;;;;1.05;0.45;;;24.80;62.10;;;;;;4999553;28;20505;-83
2022/07/16 10:26:37;;;;;;;3.42;0.50;;;23.60;64.50;;;;;;4992515;28;20521;-83
2022/07/16 10:29:05;;;;;;;2.03;0.50;;;22.60;67.60;;;;;;5019584;28;20049;-81
2022/07/16 10:31:37;;;;;;;2.88;0.73;;;21.80;70.70;;;;;;5012641;28;20418;-82
2022/07/16 10:34:40;;;;;;;5.13;0.75;;;21.20;73.80;;;;;;5019169;28;20060;-81
2022/07/16 10:37:12;;;;;;;1.23;0.98;;;20.70;76.60;;;;;;5001466;28;20053;-81
2022/07/16 10:40:06;;;;;;;0.68;0.55;;;20.50;78.20;;;;;;5009125;28;20130;-82
2022/07/16 10:42:35;;;;;;;3.42;0.70;;;20.50;77.50;;;;;;5017209;28;20057;-82
2022/07/16 10:45:04;;;;;;;5.88;1.20;;;21.80;77.50;;;;;;5000881;28;20477;-80
2022/07/16 10:47:57;;;;;;;1.63;0.50;;;24.20;70.80;;;;;;5020127;28;20045;-82
2022/07/16 10:50:27;;;;;;;1.63;0.57;;;25.80;64.00;;;;;;5025889;28;20398;-82
2022/07/16 10:52:57;;;;;;;1.73;0.60;;;26.10;62.60;;;;;;5030905;28;20057;-82
2022/07/16 10:55:40;;;;;;;3.78;0.63;;;26.30;62.00;;;;;;5007106;28;20050;-83
2022/07/16 10:58:08;;;;;;;5.60;0.77;;;26.60;59.90;;;;;;5007305;28;20046;-82
2022/07/16 11:00:36;;;;;;;2.38;0.60;;;27.00;56.00;;;;;;5004000;28;20044;-83
2022/07/16 11:03:05;;;;;;;0.95;0.40;;;26.80;52.80;;;;;;4999747;28;20046;-82
2022/07/16 11:05:35;;;;;;;3.08;0.75;;;25.90;52.70;;;;;;5010133;28;20057;-82
2022/07/16 11:08:11;;;;;;;8.73;2.67;;;26.10;52.90;;;;;;5002847;28;20145;-82
2022/07/16 11:10:41;;;;;;;5.03;0.98;;;26.70;52.40;;;;;;5003489;28;20054;-82
2022/07/16 11:13:18;;;;;;;1.38;0.90;;;27.50;51.50;;;;;;5000005;28;20667;-83
2022/07/16 11:15:46;;;;;;;3.83;0.50;;;28.30;49.40;;;;;;4993952;28;20502;-81
2022/07/16 11:18:17;;;;;;;0.65;0.52;;;28.20;49.40;;;;;;5012429;28;20046;-82
2022/07/16 11:20:47;;;;;;;5.57;0.90;;;29.00;49.40;;;;;;4985808;28;20082;-84
2022/07/16 11:23:17;;;;;;;5.85;0.80;;;29.80;48.30;;;;;;5002868;28;20076;-83
2022/07/16 11:25:57;;;;;;;3.65;0.75;;;30.50;48.40;;;;;;4996171;28;20057;-83
2022/07/16 11:28:25;;;;;;;1.63;1.17;;;31.30;47.90;;;;;;4991117;28;20105;-82
2022/07/16 11:31:08;;;;;;;4.15;1.80;;;31.70;46.50;;;;;;5000385;28;20060;-83
2022/07/16 11:33:37;;;;;;;2.90;1.00;;;31.70;46.20;;;;;;5007324;28;20050;-85
2022/07/16 11:36:13;;;;;;;3.65;0.60;;;31.90;46.40;;;;;;5004974;28;20108;-84
2022/07/16 11:38:43;;;;;;;1.05;0.60;;;32.00;45.60;;;;;;5005462;28;20048;-83
2022/07/16 11:41:10;;;;;;;2.72;0.70;;;31.90;45.90;;;;;;4994341;28;20065;-83
2022/07/16 11:43:40;;;;;;;7.97;1.15;;;31.80;45.80;;;;;;4993167;28;20108;-84
2022/07/16 11:46:25;;;;;;;2.17;0.60;;;29.90;46.60;;;;;;4972968;28;20507;-84
2022/07/16 11:48:53;;;;;;;5.25;0.60;;;28.10;49.70;;;;;;4975265;28;20046;-84
2022/07/16 11:51:23;;;;;;;0.70;0.70;;;27.80;52.80;;;;;;5008552;28;20050;-82
2022/07/16 11:53:54;;;;;;;2.75;0.82;;;27.80;52.00;;;;;;4990039;28;20057;-80
2022/07/16 11:56:33;;;;;;;1.95;1.33;;;27.40;51.40;;;;;;4995201;28;20054;-83
2022/07/16 11:59:01;;;;;;;6.45;1.27;;;26.40;53.00;;;;;;4959829;28;20045;-83
2022/07/16 12:01:33;;;;;;;6.45;1.73;;;25.30;55.00;;;;;;4990315;28;20062;-84
2022/07/16 12:04:01;;;;;;;13.40;1.80;;;24.90;56.60;;;;;;4989612;28;20560;-81
2022/07/16 12:06:30;;;;;;;4.57;0.93;;;24.10;58.10;;;;;;4992074;28;20050;-81
2022/07/16 12:08:58;;;;;;;2.55;0.60;;;23.40;61.70;;;;;;4971243;28;20056;-81
2022/07/16 12:11:34;;;;;;;6.10;0.60;;;22.50;63.90;;;;;;4977027;28;20046;-82
2022/07/16 12:14:03;;;;;;;5.82;0.65;;;21.50;65.30;;;;;;4989780;28;20145;-83
2022/07/16 12:16:34;;;;;;;3.33;0.60;;;21.80;70.40;;;;;;5000144;28;20046;-82
2022/07/16 12:19:04;;;;;;;3.45;1.67;;;23.30;65.50;;;;;;4975373;28;20133;-82
2022/07/16 12:21:37;;;;;;;10.77;8.05;;;23.20;63.10;;;;;;4993188;28;20047;-82
2022/07/16 12:24:05;;;;;;;3.72;0.80;;;22.60;65.70;;;;;;4962463;28;20047;-81
2022/07/16 12:26:36;;;;;;;3.58;0.77;;;21.90;68.50;;;;;;4976660;28;20053;-83
2022/07/16 12:29:06;;;;;;;2.50;0.70;;;21.20;70.60;;;;;;4988125;28;20054;-82
2022/07/16 12:31:38;;;;;;;8.95;0.80;;;20.70;74.90;;;;;;4970208;28;20055;-81
2022/07/16 12:34:06;;;;;;;3.90;0.90;;;20.10;80.60;;;;;;4970199;28;20046;-82
2022/07/16 12:36:38;;;;;;;2.28;0.45;;;19.90;83.30;;;;;;4995511;28;20061;-80
2022/07/16 12:39:08;;;;;;;2.50;0.60;;;21.40;86.80;;;;;;4972443;28;20298;-82
2022/07/16 12:41:38;;;;;;;2.15;1.20;;;22.90;79.70;;;;;;4992471;28;20349;-81
2022/07/16 12:44:09;;;;;;;4.32;0.68;;;22.80;75.60;;;;;;4975428;28;20050;-81
2022/07/16 12:46:40;;;;;;;2.90;1.88;;;22.20;78.20;;;;;;4984742;28;20554;-81
2022/07/16 12:49:11;;;;;;;0.90;0.70;;;21.60;83.00;;;;;;4990589;28;20077;-82
2022/07/16 12:51:45;;;;;;;3.22;1.45;;;21.10;82.60;;;;;;4985125;28;20121;-84
2022/07/16 12:54:15;;;;;;;1.65;1.08;;;21.70;81.60;;;;;;4952930;28;20054;-83
2022/07/16 12:59:32;;;;;;;2.03;1.10;;;25.60;72.30;;;;;;4998009;28;20137;-82
2022/07/16 13:02:01;;;;;;;2.80;1.00;;;28.40;65.90;;;;;;4976080;28;20124;-82
2022/07/16 13:04:28;;;;;;;3.65;1.10;;;30.00;60.40;;;;;;4991457;28;20391;-82
2022/07/16 13:06:58;;;;;;;4.93;1.10;;;31.30;58.40;;;;;;4988830;28;20050;-82
2022/07/16 13:09:25;;;;;;;1.58;1.30;;;31.50;56.10;;;;;;5009287;28;20514;-83